KVA weather

Alexander the Great International Airport
Kavala, Kavala, Greece

Public forecast

Using degrees Celsius for public forecast. Weather courtesy of forecast.io.

METAR (pilot weather report)

Retrieved 2019/07/17 11:20 UTC (21 minutes ago):

LGKV 171120Z 08007KT 9999 FEW030 28/14 Q1007

TAF (pilot weather forecast)

Retrieved 2019/07/17 06:12 UTC (5 hours ago):

TAF LGKV 170500Z 1706/1806 05010KT 9999 FEW030 PROB30 TEMPO 1710/1717 6000 SHRA FEW015TCU SCT020 BKN070 BECMG 1718/1720 VRB03KT